sensor_id;sensor_type;location;lat;lon;timestamp;temperature;humidity
5492;DHT22;2768;53.540;10.224;2022-12-29T00:05:55;7.90;99.90
5492;DHT22;2768;53.540;10.224;2022-12-29T00:11:49;7.90;99.90
5492;DHT22;2768;53.540;10.224;2022-12-29T00:17:43;8.00;99.90
5492;DHT22;2768;53.540;10.224;2022-12-29T00:23:37;8.10;99.90
5492;DHT22;2768;53.540;10.224;2022-12-29T00:29:48;8.20;99.90
5492;DHT22;2768;53.540;10.224;2022-12-29T00:36:02;8.20;99.90
5492;DHT22;2768;53.540;10.224;2022-12-29T00:42:02;8.30;99.90
5492;DHT22;2768;53.540;10.224;2022-12-29T00:48:25;8.30;99.90
5492;DHT22;2768;53.540;10.224;2022-12-29T00:54:38;8.40;99.90
5492;DHT22;2768;53.540;10.224;2022-12-29T01:00:33;8.40;99.90
5492;DHT22;2768;53.540;10.224;2022-12-29T01:06:27;8.50;99.90
5492;DHT22;2768;53.540;10.224;2022-12-29T01:12:20;8.50;99.90
5492;DHT22;2768;53.540;10.224;2022-12-29T01:18:35;8.60;99.90
5492;DHT22;2768;53.540;10.224;2022-12-29T01:24:29;8.60;99.90
5492;DHT22;2768;53.540;10.224;2022-12-29T01:30:22;8.70;99.90
5492;DHT22;2768;53.540;10.224;2022-12-29T01:36:19;8.70;99.90
5492;DHT22;2768;53.540;10.224;2022-12-29T01:42:16;8.70;99.90
5492;DHT22;2768;53.540;10.224;2022-12-29T01:48:11;8.70;99.90
5492;DHT22;2768;53.540;10.224;2022-12-29T01:54:11;8.80;99.90
5492;DHT22;2768;53.540;10.224;2022-12-29T02:00:08;8.80;99.90
5492;DHT22;2768;53.540;10.224;2022-12-29T02:06:09;8.70;99.90
5492;DHT22;2768;53.540;10.224;2022-12-29T02:12:06;8.70;99.90
5492;DHT22;2768;53.540;10.224;2022-12-29T02:18:10;8.70;99.90
5492;DHT22;2768;53.540;10.224;2022-12-29T02:24:31;8.70;99.90
5492;DHT22;2768;53.540;10.224;2022-12-29T02:36:40;8.70;99.90
5492;DHT22;2768;53.540;10.224;2022-12-29T02:42:41;8.70;99.90
5492;DHT22;2768;53.540;10.224;2022-12-29T02:48:43;8.70;99.90
5492;DHT22;2768;53.540;10.224;2022-12-29T02:54:37;8.80;99.90
5492;DHT22;2768;53.540;10.224;2022-12-29T03:06:36;8.80;99.90
5492;DHT22;2768;53.540;10.224;2022-12-29T03:12:39;8.70;99.90
5492;DHT22;2768;53.540;10.224;2022-12-29T03:18:59;8.70;99.90
5492;DHT22;2768;53.540;10.224;2022-12-29T03:24:59;8.70;99.90
5492;DHT22;2768;53.540;10.224;2022-12-29T03:30:55;8.80;99.90
5492;DHT22;2768;53.540;10.224;2022-12-29T03:36:54;8.90;99.90
5492;DHT22;2768;53.540;10.224;2022-12-29T03:42:51;9.00;99.90
5492;DHT22;2768;53.540;10.224;2022-12-29T03:48:46;8.90;99.90
5492;DHT22;2768;53.540;10.224;2022-12-29T03:54:40;9.00;99.90
5492;DHT22;2768;53.540;10.224;2022-12-29T04:00:35;9.00;99.90
5492;DHT22;2768;53.540;10.224;2022-12-29T04:06:28;9.00;99.90
5492;DHT22;2768;53.540;10.224;2022-12-29T04:12:26;9.00;99.90
5492;DHT22;2768;53.540;10.224;2022-12-29T04:18:21;9.00;99.90
5492;DHT22;2768;53.540;10.224;2022-12-29T04:24:15;9.00;99.90
5492;DHT22;2768;53.540;10.224;2022-12-29T04:30:10;9.00;99.90
5492;DHT22;2768;53.540;10.224;2022-12-29T04:36:18;9.00;99.90
5492;DHT22;2768;53.540;10.224;2022-12-29T04:42:21;9.10;99.90
5492;DHT22;2768;53.540;10.224;2022-12-29T04:48:15;9.10;99.90
5492;DHT22;2768;53.540;10.224;2022-12-29T04:54:39;9.10;99.90
5492;DHT22;2768;53.540;10.224;2022-12-29T05:00:40;9.20;99.90
5492;DHT22;2768;53.540;10.224;2022-12-29T05:06:34;9.30;99.90
5492;DHT22;2768;53.540;10.224;2022-12-29T05:12:31;9.30;99.90
5492;DHT22;2768;53.540;10.224;2022-12-29T05:18:25;9.30;99.90
5492;DHT22;2768;53.540;10.224;2022-12-29T05:24:19;9.30;99.90
5492;DHT22;2768;53.540;10.224;2022-12-29T05:30:16;9.20;99.90
5492;DHT22;2768;53.540;10.224;2022-12-29T05:36:10;9.20;99.90
5492;DHT22;2768;53.540;10.224;2022-12-29T05:42:09;9.20;99.90
5492;DHT22;2768;53.540;10.224;2022-12-29T06:04:05;9.30;99.90
5492;DHT22;2768;53.540;10.224;2022-12-29T06:09:58;9.40;99.90
5492;DHT22;2768;53.540;10.224;2022-12-29T06:15:55;9.50;99.90
5492;DHT22;2768;53.540;10.224;2022-12-29T06:21:51;9.60;99.90
5492;DHT22;2768;53.540;10.224;2022-12-29T06:27:46;9.60;99.90
5492;DHT22;2768;53.540;10.224;2022-12-29T06:33:40;9.60;99.90
5492;DHT22;2768;53.540;10.224;2022-12-29T06:39:42;9.60;99.90
5492;DHT22;2768;53.540;10.224;2022-12-29T06:45:38;9.60;99.90
5492;DHT22;2768;53.540;10.224;2022-12-29T06:51:32;9.50;99.90
5492;DHT22;2768;53.540;10.224;2022-12-29T06:57:27;9.50;99.90
5492;DHT22;2768;53.540;10.224;2022-12-29T07:03:20;9.60;99.90
5492;DHT22;2768;53.540;10.224;2022-12-29T07:09:14;9.60;99.90
5492;DHT22;2768;53.540;10.224;2022-12-29T07:15:10;9.50;99.90
5492;DHT22;2768;53.540;10.224;2022-12-29T07:21:04;9.50;99.90
5492;DHT22;2768;53.540;10.224;2022-12-29T07:26:58;9.50;99.90
5492;DHT22;2768;53.540;10.224;2022-12-29T07:32:52;9.50;99.90
5492;DHT22;2768;53.540;10.224;2022-12-29T07:38:45;9.50;99.90
5492;DHT22;2768;53.540;10.224;2022-12-29T07:44:39;9.50;99.90
5492;DHT22;2768;53.540;10.224;2022-12-29T07:50:59;9.50;99.90
5492;DHT22;2768;53.540;10.224;2022-12-29T07:56:52;9.60;99.90
5492;DHT22;2768;53.540;10.224;2022-12-29T08:02:45;9.60;99.90
5492;DHT22;2768;53.540;10.224;2022-12-29T08:08:40;9.50;99.90
5492;DHT22;2768;53.540;10.224;2022-12-29T08:14:34;9.40;99.90
5492;DHT22;2768;53.540;10.224;2022-12-29T08:20:27;9.40;99.90
5492;DHT22;2768;53.540;10.224;2022-12-29T08:26:22;9.40;99.90
5492;DHT22;2768;53.540;10.224;2022-12-29T08:32:15;9.50;99.90
5492;DHT22;2768;53.540;10.224;2022-12-29T08:38:09;9.50;99.90
5492;DHT22;2768;53.540;10.224;2022-12-29T08:44:05;9.50;99.90
5492;DHT22;2768;53.540;10.224;2022-12-29T08:49:58;9.60;99.90
5492;DHT22;2768;53.540;10.224;2022-12-29T08:55:57;9.60;99.90
5492;DHT22;2768;53.540;10.224;2022-12-29T09:02:03;9.60;99.90
5492;DHT22;2768;53.540;10.224;2022-12-29T09:07:57;9.70;99.90
5492;DHT22;2768;53.540;10.224;2022-12-29T09:13:51;9.80;99.90
5492;DHT22;2768;53.540;10.224;2022-12-29T09:19:45;10.00;92.10
5492;DHT22;2768;53.540;10.224;2022-12-29T09:25:39;10.10;69.00
5492;DHT22;2768;53.540;10.224;2022-12-29T09:31:36;10.20;45.00
5492;DHT22;2768;53.540;10.224;2022-12-29T09:37:30;10.20;29.00
5492;DHT22;2768;53.540;10.224;2022-12-29T09:43:49;10.20;14.90
5492;DHT22;2768;53.540;10.224;2022-12-29T09:49:49;10.40;1.00
5492;DHT22;2768;53.540;10.224;2022-12-29T09:55:49;10.20;1.00
5492;DHT22;2768;53.540;10.224;2022-12-29T10:01:49;10.30;1.00
5492;DHT22;2768;53.540;10.224;2022-12-29T10:07:52;10.30;1.00
5492;DHT22;2768;53.540;10.224;2022-12-29T10:14:06;10.60;1.00
5492;DHT22;2768;53.540;10.224;2022-12-29T10:20:20;10.70;1.00
5492;DHT22;2768;53.540;10.224;2022-12-29T10:26:20;10.90;1.00
5492;DHT22;2768;53.540;10.224;2022-12-29T10:32:25;10.50;1.00
5492;DHT22;2768;53.540;10.224;2022-12-29T10:38:25;10.80;1.00
5492;DHT22;2768;53.540;10.224;2022-12-29T10:44:20;11.10;1.00
5492;DHT22;2768;53.540;10.224;2022-12-29T10:50:15;10.80;1.00
5492;DHT22;2768;53.540;10.224;2022-12-29T10:56:14;10.70;1.00
5492;DHT22;2768;53.540;10.224;2022-12-29T11:08:35;10.80;1.00
5492;DHT22;2768;53.540;10.224;2022-12-29T11:14:31;10.60;1.00
5492;DHT22;2768;53.540;10.224;2022-12-29T11:20:30;11.10;1.00
5492;DHT22;2768;53.540;10.224;2022-12-29T11:26:27;10.80;1.00
5492;DHT22;2768;53.540;10.224;2022-12-29T11:32:26;10.80;1.00
5492;DHT22;2768;53.540;10.224;2022-12-29T11:38:23;10.60;1.00
5492;DHT22;2768;53.540;10.224;2022-12-29T11:44:19;10.50;1.00
5492;DHT22;2768;53.540;10.224;2022-12-29T11:50:17;10.50;1.00
5492;DHT22;2768;53.540;10.224;2022-12-29T11:56:15;10.50;1.00
5492;DHT22;2768;53.540;10.224;2022-12-29T12:02:30;10.40;1.00
5492;DHT22;2768;53.540;10.224;2022-12-29T12:08:37;10.40;1.00
5492;DHT22;2768;53.540;10.224;2022-12-29T12:14:35;10.40;1.00
5492;DHT22;2768;53.540;10.224;2022-12-29T12:20:49;10.30;1.00
5492;DHT22;2768;53.540;10.224;2022-12-29T12:26:53;10.20;1.00
5492;DHT22;2768;53.540;10.224;2022-12-29T12:32:52;10.10;1.00
5492;DHT22;2768;53.540;10.224;2022-12-29T12:38:54;10.60;1.00
5492;DHT22;2768;53.540;10.224;2022-12-29T12:44:55;10.50;1.00
5492;DHT22;2768;53.540;10.224;2022-12-29T12:50:57;10.40;1.00
5492;DHT22;2768;53.540;10.224;2022-12-29T12:57:08;10.40;1.00
5492;DHT22;2768;53.540;10.224;2022-12-29T13:03:12;10.50;1.00
5492;DHT22;2768;53.540;10.224;2022-12-29T13:09:21;10.60;1.00
5492;DHT22;2768;53.540;10.224;2022-12-29T13:15:29;10.60;1.00
5492;DHT22;2768;53.540;10.224;2022-12-29T13:21:36;10.80;1.00
5492;DHT22;2768;53.540;10.224;2022-12-29T13:27:37;10.80;1.00
5492;DHT22;2768;53.540;10.224;2022-12-29T13:33:41;10.90;1.00
5492;DHT22;2768;53.540;10.224;2022-12-29T13:39:43;10.80;1.00
5492;DHT22;2768;53.540;10.224;2022-12-29T13:45:39;10.70;1.00
5492;DHT22;2768;53.540;10.224;2022-12-29T13:51:35;10.70;1.00
5492;DHT22;2768;53.540;10.224;2022-12-29T13:57:41;10.70;1.00
5492;DHT22;2768;53.540;10.224;2022-12-29T14:03:49;10.70;1.00
5492;DHT22;2768;53.540;10.224;2022-12-29T14:09:48;10.50;1.00
5492;DHT22;2768;53.540;10.224;2022-12-29T14:15:44;10.40;1.00
5492;DHT22;2768;53.540;10.224;2022-12-29T14:21:39;10.20;1.00
5492;DHT22;2768;53.540;10.224;2022-12-29T14:27:53;10.00;1.00
5492;DHT22;2768;53.540;10.224;2022-12-29T14:40:18;9.90;1.00
5492;DHT22;2768;53.540;10.224;2022-12-29T14:46:13;8.50;1.00
5492;DHT22;2768;53.540;10.224;2022-12-29T14:52:14;8.30;1.00
5492;DHT22;2768;53.540;10.224;2022-12-29T14:58:15;8.30;1.00
5492;DHT22;2768;53.540;10.224;2022-12-29T15:04:18;8.40;1.00
5492;DHT22;2768;53.540;10.224;2022-12-29T15:10:15;8.40;1.00
5492;DHT22;2768;53.540;10.224;2022-12-29T15:16:23;8.40;1.00
5492;DHT22;2768;53.540;10.224;2022-12-29T15:22:18;8.40;1.00
5492;DHT22;2768;53.540;10.224;2022-12-29T15:28:13;8.40;1.00
5492;DHT22;2768;53.540;10.224;2022-12-29T15:34:11;8.40;1.00
5492;DHT22;2768;53.540;10.224;2022-12-29T15:40:22;8.30;1.00
5492;DHT22;2768;53.540;10.224;2022-12-29T15:46:16;8.30;1.00
5492;DHT22;2768;53.540;10.224;2022-12-29T15:52:12;8.30;1.00
5492;DHT22;2768;53.540;10.224;2022-12-29T15:58:21;8.30;1.00
5492;DHT22;2768;53.540;10.224;2022-12-29T16:04:15;8.50;1.00
5492;DHT22;2768;53.540;10.224;2022-12-29T16:10:23;8.60;1.00
5492;DHT22;2768;53.540;10.224;2022-12-29T16:16:21;8.60;1.00
5492;DHT22;2768;53.540;10.224;2022-12-29T16:22:19;8.60;1.00
5492;DHT22;2768;53.540;10.224;2022-12-29T16:28:19;8.60;1.00
5492;DHT22;2768;53.540;10.224;2022-12-29T16:34:23;8.70;1.00
5492;DHT22;2768;53.540;10.224;2022-12-29T16:40:26;8.70;1.00
5492;DHT22;2768;53.540;10.224;2022-12-29T16:46:25;8.70;1.00
5492;DHT22;2768;53.540;10.224;2022-12-29T16:52:25;8.80;1.00
5492;DHT22;2768;53.540;10.224;2022-12-29T16:58:24;8.80;1.00
5492;DHT22;2768;53.540;10.224;2022-12-29T17:04:18;8.70;1.00
5492;DHT22;2768;53.540;10.224;2022-12-29T17:10:13;8.70;1.00
5492;DHT22;2768;53.540;10.224;2022-12-29T17:16:09;8.70;1.00
5492;DHT22;2768;53.540;10.224;2022-12-29T17:22:09;8.70;1.00
5492;DHT22;2768;53.540;10.224;2022-12-29T17:28:15;8.70;1.00
5492;DHT22;2768;53.540;10.224;2022-12-29T17:34:12;8.70;1.00
5492;DHT22;2768;53.540;10.224;2022-12-29T17:40:10;8.60;1.00
5492;DHT22;2768;53.540;10.224;2022-12-29T17:46:07;8.70;1.00
5492;DHT22;2768;53.540;10.224;2022-12-29T17:52:00;8.70;1.00
5492;DHT22;2768;53.540;10.224;2022-12-29T17:57:54;8.70;1.00
5492;DHT22;2768;53.540;10.224;2022-12-29T18:03:49;8.70;1.00
5492;DHT22;2768;53.540;10.224;2022-12-29T18:09:42;8.70;1.00
5492;DHT22;2768;53.540;10.224;2022-12-29T18:15:35;8.70;1.00
5492;DHT22;2768;53.540;10.224;2022-12-29T18:21:31;8.70;1.00
5492;DHT22;2768;53.540;10.224;2022-12-29T18:27:25;8.70;1.00
5492;DHT22;2768;53.540;10.224;2022-12-29T18:33:20;8.70;1.00
5492;DHT22;2768;53.540;10.224;2022-12-29T18:39:18;8.70;1.00
5492;DHT22;2768;53.540;10.224;2022-12-29T18:45:21;8.80;1.00
5492;DHT22;2768;53.540;10.224;2022-12-29T18:51:17;8.80;1.00
5492;DHT22;2768;53.540;10.224;2022-12-29T18:57:12;8.80;1.00
5492;DHT22;2768;53.540;10.224;2022-12-29T19:03:05;8.80;1.00
5492;DHT22;2768;53.540;10.224;2022-12-29T19:08:59;8.80;1.00
5492;DHT22;2768;53.540;10.224;2022-12-29T19:14:54;8.90;1.00
5492;DHT22;2768;53.540;10.224;2022-12-29T19:20:49;8.80;1.00
5492;DHT22;2768;53.540;10.224;2022-12-29T19:26:43;8.80;1.00
5492;DHT22;2768;53.540;10.224;2022-12-29T19:32:37;8.80;1.00
5492;DHT22;2768;53.540;10.224;2022-12-29T19:38:31;8.70;1.00
5492;DHT22;2768;53.540;10.224;2022-12-29T19:44:24;8.60;1.00
5492;DHT22;2768;53.540;10.224;2022-12-29T19:50:19;8.60;1.00
5492;DHT22;2768;53.540;10.224;2022-12-29T19:56:13;8.40;1.00
5492;DHT22;2768;53.540;10.224;2022-12-29T20:02:09;8.50;1.00
5492;DHT22;2768;53.540;10.224;2022-12-29T20:08:11;8.50;1.00
5492;DHT22;2768;53.540;10.224;2022-12-29T20:14:04;8.50;1.00
5492;DHT22;2768;53.540;10.224;2022-12-29T20:19:58;8.60;1.00
5492;DHT22;2768;53.540;10.224;2022-12-29T20:25:55;8.60;1.00
5492;DHT22;2768;53.540;10.224;2022-12-29T20:31:49;8.30;1.00
5492;DHT22;2768;53.540;10.224;2022-12-29T20:37:43;8.00;1.00
5492;DHT22;2768;53.540;10.224;2022-12-29T20:43:37;7.70;1.00
5492;DHT22;2768;53.540;10.224;2022-12-29T20:49:31;7.50;1.00
5492;DHT22;2768;53.540;10.224;2022-12-29T20:55:26;7.40;1.00
5492;DHT22;2768;53.540;10.224;2022-12-29T21:01:23;7.30;1.00
5492;DHT22;2768;53.540;10.224;2022-12-29T21:07:17;7.20;1.00
5492;DHT22;2768;53.540;10.224;2022-12-29T21:13:11;7.20;1.00
5492;DHT22;2768;53.540;10.224;2022-12-29T21:19:06;7.30;1.00
5492;DHT22;2768;53.540;10.224;2022-12-29T21:25:00;7.30;1.00
5492;DHT22;2768;53.540;10.224;2022-12-29T21:30:53;7.40;1.00
5492;DHT22;2768;53.540;10.224;2022-12-29T21:36:48;7.30;1.00
5492;DHT22;2768;53.540;10.224;2022-12-29T21:42:41;7.20;1.00
5492;DHT22;2768;53.540;10.224;2022-12-29T21:48:35;7.30;1.00
5492;DHT22;2768;53.540;10.224;2022-12-29T21:54:30;7.20;1.00
5492;DHT22;2768;53.540;10.224;2022-12-29T22:00:41;7.30;1.00
5492;DHT22;2768;53.540;10.224;2022-12-29T22:06:52;7.30;1.00
5492;DHT22;2768;53.540;10.224;2022-12-29T22:13:04;7.30;1.00
5492;DHT22;2768;53.540;10.224;2022-12-29T22:18:58;7.30;1.00
5492;DHT22;2768;53.540;10.224;2022-12-29T22:24:51;7.30;1.00
5492;DHT22;2768;53.540;10.224;2022-12-29T22:30:46;7.20;1.00
5492;DHT22;2768;53.540;10.224;2022-12-29T22:36:40;7.10;1.00
5492;DHT22;2768;53.540;10.224;2022-12-29T22:42:34;7.10;1.00
5492;DHT22;2768;53.540;10.224;2022-12-29T22:48:30;7.10;1.00
5492;DHT22;2768;53.540;10.224;2022-12-29T22:54:24;7.10;1.00
5492;DHT22;2768;53.540;10.224;2022-12-29T23:00:17;7.10;1.00
5492;DHT22;2768;53.540;10.224;2022-12-29T23:06:14;7.10;1.00
5492;DHT22;2768;53.540;10.224;2022-12-29T23:12:08;7.10;1.00
5492;DHT22;2768;53.540;10.224;2022-12-29T23:18:02;7.10;1.00
5492;DHT22;2768;53.540;10.224;2022-12-29T23:23:57;7.20;1.00
5492;DHT22;2768;53.540;10.224;2022-12-29T23:29:55;7.30;1.00
5492;DHT22;2768;53.540;10.224;2022-12-29T23:35:48;7.40;1.00
5492;DHT22;2768;53.540;10.224;2022-12-29T23:41:43;7.40;1.00
5492;DHT22;2768;53.540;10.224;2022-12-29T23:47:36;7.40;1.00
5492;DHT22;2768;53.540;10.224;2022-12-29T23:53:30;7.40;1.00
5492;DHT22;2768;53.540;10.224;2022-12-29T23:59:25;7.40;1.00
